Home > Products > Valid Products > TAF

000
FTUS46 KOTX 250532
TAFMWH
TAF
KMWH 250532Z 2506/2606 VRB05KT P6SM SCT070 BKN100
     FM250900 22005KT P6SM BKN060 OVC090
     FM251900 23009KT P6SM SCT080 SCT150
     FM260000 28010G15KT P6SM FEW080 FEW150=



000
FTUS46 KOTX 250532
TAFSFF
TAF
KSFF 250532Z 2506/2606 VRB03KT P6SM SCT070 BKN120 BKN200
     FM251300 19005KT P6SM SCT040 BKN060 OVC100
     FM251700 22007KT P6SM -SHRA SCT030 BKN040 OVC100
     FM260200 33003KT P6SM SCT050 BKN100 OVC120=



000
FTUS46 KOTX 250532
TAFEAT
TAF
KEAT 250532Z 2506/2606 32007KT P6SM SCT080 OVC100
     FM251600 29008KT P6SM FEW060 BKN100
     FM252000 30008KT P6SM FEW100
     FM260000 30014KT P6SM FEW150=



000
FTUS46 KOTX 250532
TAFGEG
TAF
KGEG 250532Z 2506/2606 17006KT P6SM SCT070 BKN120 BKN200
     FM251300 17009KT P6SM SCT040 BKN050 OVC100
     FM251700 21009KT P6SM -SHRA SCT030 BKN040 OVC100
     FM260200 34005KT P6SM SCT050 BKN100 OVC120=



000
FTUS46 KOTX 250532
TAFCOE
TAF
KCOE 250532Z 2506/2606 VRB04KT P6SM SCT070 BKN120 BKN200
     FM251300 17006KT P6SM SCT050 BKN060 OVC150
     FM251800 25008KT P6SM -SHRA SCT040 BKN060 OVC120
     FM260300 VRB05KT P6SM SCT060 OVC150
      AMD LTD TO CLD AND VIS=



000
FTUS46 KOTX 250532
TAFLWS
TAF
KLWS 250532Z 2506/2606 VRB04KT P6SM SCT100 BKN150
     FM251400 11004KT P6SM VCSH SCT050 BKN080 OVC120
     FM251800 31008KT P6SM VCSH SCT060 BKN080 OVC150
     FM260100 25004KT P6SM SCT080 BKN150=



000
FTUS46 KOTX 250532
TAFPUW
TAF
KPUW 250532Z 2506/2606 23008KT P6SM SCT090 BKN150
     FM251200 21008KT P6SM VCSH SCT040 BKN070 OVC150
     FM251700 26009KT P6SM -SHRA SCT040 BKN060 OVC120
     FM260100 27007KT P6SM SCT060 BKN150=



000
FTUS46 KOTX 250532
TAFPUW
TAF
KPUW 250532Z 2506/2606 23008KT P6SM SCT090 BKN150
     FM251200 21008KT P6SM VCSH SCT040 BKN070 OVC150
     FM251700 26009KT P6SM -SHRA SCT040 BKN060 OVC120
     FM260100 27007KT P6SM SCT060 BKN150=



000
FTUS46 KOTX 250532
TAFLWS
TAF
KLWS 250532Z 2506/2606 VRB04KT P6SM SCT100 BKN150
     FM251400 11004KT P6SM VCSH SCT050 BKN080 OVC120
     FM251800 31008KT P6SM VCSH SCT060 BKN080 OVC150
     FM260100 25004KT P6SM SCT080 BKN150=



000
FTUS46 KOTX 250532
TAFMWH
TAF
KMWH 250532Z 2506/2606 VRB05KT P6SM SCT070 BKN100
     FM250900 22005KT P6SM BKN060 OVC090
     FM251900 23009KT P6SM SCT080 SCT150
     FM260000 28010G15KT P6SM FEW080 FEW150=



000
FTUS46 KOTX 250532
TAFCOE
TAF
KCOE 250532Z 2506/2606 VRB04KT P6SM SCT070 BKN120 BKN200
     FM251300 17006KT P6SM SCT050 BKN060 OVC150
     FM251800 25008KT P6SM -SHRA SCT040 BKN060 OVC120
     FM260300 VRB05KT P6SM SCT060 OVC150
      AMD LTD TO CLD AND VIS=



000
FTUS46 KOTX 250532
TAFEAT
TAF
KEAT 250532Z 2506/2606 32007KT P6SM SCT080 OVC100
     FM251600 29008KT P6SM FEW060 BKN100
     FM252000 30008KT P6SM FEW100
     FM260000 30014KT P6SM FEW150=



000
FTUS46 KOTX 250532
TAFGEG
TAF
KGEG 250532Z 2506/2606 17006KT P6SM SCT070 BKN120 BKN200
     FM251300 17009KT P6SM SCT040 BKN050 OVC100
     FM251700 21009KT P6SM -SHRA SCT030 BKN040 OVC100
     FM260200 34005KT P6SM SCT050 BKN100 OVC120=



000
FTUS46 KOTX 250532
TAFSFF
TAF
KSFF 250532Z 2506/2606 VRB03KT P6SM SCT070 BKN120 BKN200
     FM251300 19005KT P6SM SCT040 BKN060 OVC100
     FM251700 22007KT P6SM -SHRA SCT030 BKN040 OVC100
     FM260200 33003KT P6SM SCT050 BKN100 OVC120=



000
FTUS46 KOTX 242320
TAFLWS
TAF
KLWS 242320Z 2500/2524 VRB04KT P6SM VCSH SCT050 BKN100 BKN150
     FM250300 VRB04KT P6SM SCT100 BKN150
     FM251500 VRB04KT P6SM VCSH SCT020 BKN040 OVC100
     FM251900 31008KT P6SM VCSH SCT040 BKN060 OVC120=



000
FTUS46 KOTX 242320
TAFCOE
TAF
KCOE 242320Z 2500/2524 23013KT P6SM VCSH SCT040 BKN060 OVC100
     FM250300 18006KT P6SM SCT070 BKN120
     FM251500 18005KT P6SM VCSH SCT040 BKN060 OVC150
     FM252000 25008KT P6SM -SHRA SCT040 BKN060 OVC150
      AMD LTD TO CLD AND VIS=



000
FTUS46 KOTX 242320
TAFSFF
TAF
KSFF 242320Z 2500/2524 23010G15KT P6SM VCSH SCT050 BKN070 BKN100
      TEMPO 2500/2502 -RA BKN050
     FM250300 VRB03KT P6SM SCT080 BKN120
     FM251500 20006KT P6SM VCSH SCT040 BKN060 OVC150
     FM252000 23007KT P6SM -SHRA SCT040 BKN060 OVC150=



000
FTUS46 KOTX 242320
TAFGEG
TAF
KGEG 242320Z 2500/2524 22013G20KT P6SM VCSH SCT050 BKN070 BKN150
      TEMPO 2500/2502 -RA BKN050
     FM250300 19005KT P6SM SCT080 BKN120
     FM251500 20008KT P6SM VCSH SCT040 BKN060 OVC150
     FM252000 23009KT P6SM -SHRA SCT040 BKN060 OVC150=



000
FTUS46 KOTX 242320
TAFCOE
TAF
KCOE 242320Z 2500/2524 23013KT P6SM VCSH SCT040 BKN060 OVC100
     FM250300 18006KT P6SM SCT070 BKN120
     FM251500 18005KT P6SM VCSH SCT040 BKN060 OVC150
     FM252000 25008KT P6SM -SHRA SCT040 BKN060 OVC150
      AMD LTD TO CLD AND VIS=



000
FTUS46 KOTX 242320
TAFLWS
TAF
KLWS 242320Z 2500/2524 VRB04KT P6SM VCSH SCT050 BKN100 BKN150
     FM250300 VRB04KT P6SM SCT100 BKN150
     FM251500 VRB04KT P6SM VCSH SCT020 BKN040 OVC100
     FM251900 31008KT P6SM VCSH SCT040 BKN060 OVC120=



000
FTUS46 KOTX 242320
TAFGEG
TAF
KGEG 242320Z 2500/2524 22013G20KT P6SM VCSH SCT050 BKN070 BKN150
      TEMPO 2500/2502 -RA BKN050
     FM250300 19005KT P6SM SCT080 BKN120
     FM251500 20008KT P6SM VCSH SCT040 BKN060 OVC150
     FM252000 23009KT P6SM -SHRA SCT040 BKN060 OVC150=



000
FTUS46 KOTX 242320
TAFPUW
TAF
KPUW 242320Z 2500/2524 24011G17KT P6SM VCSH SCT050 BKN060 BKN150
     FM250200 23008KT P6SM SCT100 BKN150
     FM251400 23008KT P6SM VCSH SCT040 BKN070 OVC120
     FM252000 27009KT P6SM VCSH SCT040 BKN070 OVC120=



000
FTUS46 KOTX 242320
TAFEAT
TAF
KEAT 242320Z 2500/2524 31015G22KT P6SM BKN150
     FM250300 30009KT P6SM SCT150
     FM250600 32006KT P6SM SCT080 BKN120
     FM251800 29008KT P6SM VCSH SCT060 BKN090=



000
FTUS46 KOTX 242320
TAFPUW
TAF
KPUW 242320Z 2500/2524 24011G17KT P6SM VCSH SCT050 BKN060 BKN150
     FM250200 23008KT P6SM SCT100 BKN150
     FM251400 23008KT P6SM VCSH SCT040 BKN070 OVC120
     FM252000 27009KT P6SM VCSH SCT040 BKN070 OVC120=



000
FTUS46 KOTX 242320
TAFEAT
TAF
KEAT 242320Z 2500/2524 31015G22KT P6SM BKN150
     FM250300 30009KT P6SM SCT150
     FM250600 32006KT P6SM SCT080 BKN120
     FM251800 29008KT P6SM VCSH SCT060 BKN090=



000
FTUS46 KOTX 242320
TAFSFF
TAF
KSFF 242320Z 2500/2524 23010G15KT P6SM VCSH SCT050 BKN070 BKN100
      TEMPO 2500/2502 -RA BKN050
     FM250300 VRB03KT P6SM SCT080 BKN120
     FM251500 20006KT P6SM VCSH SCT040 BKN060 OVC150
     FM252000 23007KT P6SM -SHRA SCT040 BKN060 OVC150=



000
FTUS46 KOTX 242320
TAFMWH
TAF
KMWH 242320Z 2500/2524 23011KT P6SM VCSH SCT060 BKN090 BKN120
     FM250200 24007KT P6SM SCT090 BKN120
     FM250600 21005KT P6SM SCT070 BKN100
     FM251800 23008KT P6SM VCSH SCT060 BKN100=



000
FTUS46 KOTX 242320
TAFMWH
TAF
KMWH 242320Z 2500/2524 23011KT P6SM VCSH SCT060 BKN090 BKN120
     FM250200 24007KT P6SM SCT090 BKN120
     FM250600 21005KT P6SM SCT070 BKN100
     FM251800 23008KT P6SM VCSH SCT060 BKN100=



000
FTUS46 KOTX 241728
TAFMWH
TAF
KMWH 241728Z 2418/2518 21011KT P6SM SCT070 SCT150
     FM242000 23012G20KT P6SM VCSH SCT060 BKN090 BKN120
     FM250200 24007KT P6SM SCT150
     FM250600 21005KT P6SM SCT070 BKN100=



000
FTUS46 KOTX 241728
TAFGEG
TAF
KGEG 241728Z 2418/2518 22016G22KT P6SM VCSH SCT050 BKN070 BKN150
     FM250300 20009KT P6SM SCT080 BKN120
     FM250800 17007KT P6SM SCT150 BKN200
     FM251500 20008KT P6SM VCSH SCT040 BKN060 OVC150=



000
FTUS46 KOTX 241728
TAFLWS
TAF
KLWS 241728Z 2418/2518 VRB05KT P6SM SCT030 BKN060 OVC100
     FM242100 31009G14KT P6SM VCSH SCT050 BKN100 BKN150
     FM250300 VRB04KT P6SM SCT100 BKN150
     FM251500 06004KT P6SM VCSH SCT020 BKN040 OVC100=



000
FTUS46 KOTX 241728
TAFSFF
TAF
KSFF 241728Z 2418/2518 22012G18KT P6SM VCSH SCT050 BKN070 BKN100
     FM250300 22005KT P6SM SCT080 BKN120
     FM250800 18003KT P6SM SCT150
     FM251500 20006KT P6SM VCSH SCT040 BKN060 OVC150=



000
FTUS46 KOTX 241728
TAFPUW
TAF
KPUW 241728Z 2418/2518 25012KT P6SM SCT040 SCT080 BKN150
     FM242000 24013G19KT P6SM VCSH SCT050 BKN060 BKN150
     FM250200 23006KT P6SM SCT100 BKN150
     FM250500 21005KT P6SM SCT150
     FM251400 23008KT P6SM VCSH SCT040 BKN070 OVC120=



000
FTUS46 KOTX 241728
TAFEAT
TAF
KEAT 241728Z 2418/2518 30010KT P6SM BKN080 OVC100
     FM242000 28013G20KT P6SM BKN150
     FM250300 30009KT P6SM SCT150
     FM250600 32006KT P6SM SCT080 BKN120=



000
FTUS46 KOTX 241728
TAFCOE
TAF
KCOE 241728Z 2418/2518 21011KT P6SM VCSH SCT040 BKN060 OVC100
     FM250300 18008KT P6SM SCT070 BKN120
     FM250600 16005KT P6SM SCT070 SCT150
     FM251500 18008KT P6SM VCSH SCT040 BKN060 OVC150
      AMD LTD TO CLD AND VIS=



000
FTUS46 KOTX 241728
TAFPUW
TAF
KPUW 241728Z 2418/2518 25012KT P6SM SCT040 SCT080 BKN150
     FM242000 24013G19KT P6SM VCSH SCT050 BKN060 BKN150
     FM250200 23006KT P6SM SCT100 BKN150
     FM250500 21005KT P6SM SCT150
     FM251400 23008KT P6SM VCSH SCT040 BKN070 OVC120=



000
FTUS46 KOTX 241728
TAFGEG
TAF
KGEG 241728Z 2418/2518 22016G22KT P6SM VCSH SCT050 BKN070 BKN150
     FM250300 20009KT P6SM SCT080 BKN120
     FM250800 17007KT P6SM SCT150 BKN200
     FM251500 20008KT P6SM VCSH SCT040 BKN060 OVC150=



000
FTUS46 KOTX 241728
TAFMWH
TAF
KMWH 241728Z 2418/2518 21011KT P6SM SCT070 SCT150
     FM242000 23012G20KT P6SM VCSH SCT060 BKN090 BKN120
     FM250200 24007KT P6SM SCT150
     FM250600 21005KT P6SM SCT070 BKN100=



000
FTUS46 KOTX 241728
TAFSFF
TAF
KSFF 241728Z 2418/2518 22012G18KT P6SM VCSH SCT050 BKN070 BKN100
     FM250300 22005KT P6SM SCT080 BKN120
     FM250800 18003KT P6SM SCT150
     FM251500 20006KT P6SM VCSH SCT040 BKN060 OVC150=



000
FTUS46 KOTX 241728
TAFEAT
TAF
KEAT 241728Z 2418/2518 30010KT P6SM BKN080 OVC100
     FM242000 28013G20KT P6SM BKN150
     FM250300 30009KT P6SM SCT150
     FM250600 32006KT P6SM SCT080 BKN120=



000
FTUS46 KOTX 241728
TAFCOE
TAF
KCOE 241728Z 2418/2518 21011KT P6SM VCSH SCT040 BKN060 OVC100
     FM250300 18008KT P6SM SCT070 BKN120
     FM250600 16005KT P6SM SCT070 SCT150
     FM251500 18008KT P6SM VCSH SCT040 BKN060 OVC150
      AMD LTD TO CLD AND VIS=



000
FTUS46 KOTX 241728
TAFLWS
TAF
KLWS 241728Z 2418/2518 VRB05KT P6SM SCT030 BKN060 OVC100
     FM242100 31009G14KT P6SM VCSH SCT050 BKN100 BKN150
     FM250300 VRB04KT P6SM SCT100 BKN150
     FM251500 06004KT P6SM VCSH SCT020 BKN040 OVC100=



000
FTUS46 KOTX 241459 AAA
TAFMWH
TAF AMD
KMWH 241459Z 2415/2512 21011KT P6SM SCT070 BKN120
     FM241900 23012G20KT P6SM VCSH SCT070 BKN120
     FM250200 24007KT P6SM SCT150
     FM250600 21005KT P6SM SCT070 BKN100=



000
FTUS46 KOTX 241459 AAA
TAFMWH
TAF AMD
KMWH 241459Z 2415/2512 21011KT P6SM SCT070 BKN120
     FM241900 23012G20KT P6SM VCSH SCT070 BKN120
     FM250200 24007KT P6SM SCT150
     FM250600 21005KT P6SM SCT070 BKN100=



000
FTUS46 KOTX 241120
TAFGEG
TAF
KGEG 241120Z 2412/2512 20012KT P6SM SCT050 BKN100
     FM241600 22016G22KT P6SM VCSH SCT050 BKN070 BKN100
     FM250300 20009KT P6SM SCT080 BKN120
     FM250800 17007KT P6SM SCT150=



000
FTUS46 KOTX 241120
TAFCOE
TAF
KCOE 241120Z 2412/2512 19009KT P6SM SCT040 BKN060 OVC100
     FM241600 21011G16KT P6SM VCSH SCT040 BKN060 OVC100
     FM250300 18007KT P6SM SCT070 BKN120
     FM250600 17005KT P6SM SCT070 SCT150
      AMD LTD TO CLD AND VIS=



000
FTUS46 KOTX 241120
TAFEAT
TAF
KEAT 241120Z 2412/2512 30010KT P6SM BKN080 OVC100
     FM242000 28013G20KT P6SM BKN150
     FM250300 30009KT P6SM SCT150
     FM250600 32006KT P6SM SCT080 BKN120=



000
FTUS46 KOTX 241120
TAFEAT
TAF
KEAT 241120Z 2412/2512 30010KT P6SM BKN080 OVC100
     FM242000 28013G20KT P6SM BKN150
     FM250300 30009KT P6SM SCT150
     FM250600 32006KT P6SM SCT080 BKN120=



000
FTUS46 KOTX 241120
TAFCOE
TAF
KCOE 241120Z 2412/2512 19009KT P6SM SCT040 BKN060 OVC100
     FM241600 21011G16KT P6SM VCSH SCT040 BKN060 OVC100
     FM250300 18007KT P6SM SCT070 BKN120
     FM250600 17005KT P6SM SCT070 SCT150
      AMD LTD TO CLD AND VIS=



000
FTUS46 KOTX 241120
TAFCOE
TAF
KCOE 241120Z 2412/2512 19009KT P6SM SCT040 BKN060 OVC100
     FM241600 21011G16KT P6SM VCSH SCT040 BKN060 OVC100
     FM250300 18007KT P6SM SCT070 BKN120
     FM250600 17005KT P6SM SCT070 SCT150
      AMD LTD TO CLD AND VIS=



000
FTUS46 KOTX 241120
TAFSFF
TAF
KSFF 241120Z 2412/2512 20008KT P6SM SCT050 BKN100
     FM241700 22012G18KT P6SM VCSH SCT050 BKN070 BKN100
     FM250300 22005KT P6SM SCT080 BKN120
     FM250800 18003KT P6SM SCT150=



000
FTUS46 KOTX 241120
TAFMWH
TAF
KMWH 241120Z 2412/2512 22013G20KT P6SM SCT070 BKN120
     FM250200 24007KT P6SM SCT150
     FM250600 21005KT P6SM SCT070 BKN100=



000
FTUS46 KOTX 241120
TAFPUW
TAF
KPUW 241120Z 2412/2512 24008KT P6SM SCT030 BKN060 OVC120
     FM241600 25012G20KT P6SM VCSH SCT040 SCT080 BKN150
     FM250200 23006KT P6SM SCT100 BKN150
     FM250500 18005KT P6SM SCT150=



000
FTUS46 KOTX 241120
TAFLWS
TAF
KLWS 241120Z 2412/2512 24005KT P6SM BKN050 OVC100
     FM242100 32009G14KT P6SM VCSH SCT050 BKN100 BKN150
     FM250300 VRB04KT P6SM SCT100 BKN150
     FM250800 13003KT P6SM SCT070 BKN120=



000
FTUS46 KOTX 241120
TAFGEG
TAF
KGEG 241120Z 2412/2512 20012KT P6SM SCT050 BKN100
     FM241600 22016G22KT P6SM VCSH SCT050 BKN070 BKN100
     FM250300 20009KT P6SM SCT080 BKN120
     FM250800 17007KT P6SM SCT150=



000
FTUS46 KOTX 241120
TAFEAT
TAF
KEAT 241120Z 2412/2512 30010KT P6SM BKN080 OVC100
     FM242000 28013G20KT P6SM BKN150
     FM250300 30009KT P6SM SCT150
     FM250600 32006KT P6SM SCT080 BKN120=



000
FTUS46 KOTX 241120
TAFCOE
TAF
KCOE 241120Z 2412/2512 19009KT P6SM SCT040 BKN060 OVC100
     FM241600 21011G16KT P6SM VCSH SCT040 BKN060 OVC100
     FM250300 18007KT P6SM SCT070 BKN120
     FM250600 17005KT P6SM SCT070 SCT150
      AMD LTD TO CLD AND VIS=



000
FTUS46 KOTX 241120
TAFLWS
TAF
KLWS 241120Z 2412/2512 24005KT P6SM BKN050 OVC100
     FM242100 32009G14KT P6SM VCSH SCT050 BKN100 BKN150
     FM250300 VRB04KT P6SM SCT100 BKN150
     FM250800 13003KT P6SM SCT070 BKN120=



000
FTUS46 KOTX 241120
TAFPUW
TAF
KPUW 241120Z 2412/2512 24008KT P6SM SCT030 BKN060 OVC120
     FM241600 25012G20KT P6SM VCSH SCT040 SCT080 BKN150
     FM250200 23006KT P6SM SCT100 BKN150
     FM250500 18005KT P6SM SCT150=



000
FTUS46 KOTX 241120
TAFSFF
TAF
KSFF 241120Z 2412/2512 20008KT P6SM SCT050 BKN100
     FM241700 22012G18KT P6SM VCSH SCT050 BKN070 BKN100
     FM250300 22005KT P6SM SCT080 BKN120
     FM250800 18003KT P6SM SCT150=



000
FTUS46 KOTX 241120
TAFEAT
TAF
KEAT 241120Z 2412/2512 30010KT P6SM BKN080 OVC100
     FM242000 28013G20KT P6SM BKN150
     FM250300 30009KT P6SM SCT150
     FM250600 32006KT P6SM SCT080 BKN120=



000
FTUS46 KOTX 241120
TAFGEG
TAF
KGEG 241120Z 2412/2512 20012KT P6SM SCT050 BKN100
     FM241600 22016G22KT P6SM VCSH SCT050 BKN070 BKN100
     FM250300 20009KT P6SM SCT080 BKN120
     FM250800 17007KT P6SM SCT150=



000
FTUS46 KOTX 241120
TAFMWH
TAF
KMWH 241120Z 2412/2512 22013G20KT P6SM SCT070 BKN120
     FM250200 24007KT P6SM SCT150
     FM250600 21005KT P6SM SCT070 BKN100=



000
FTUS46 KOTX 241120
TAFGEG
TAF
KGEG 241120Z 2412/2512 20012KT P6SM SCT050 BKN100
     FM241600 22016G22KT P6SM VCSH SCT050 BKN070 BKN100
     FM250300 20009KT P6SM SCT080 BKN120
     FM250800 17007KT P6SM SCT150=



000
FTUS46 KOTX 240523
TAFGEG
TAF
KGEG 240523Z 2406/2506 17006KT P6SM VCSH BKN100 BKN130
     FM240900 20012KT P6SM SCT100 BKN150
     FM242100 22015G20KT P6SM VCSH BKN070 BKN100
     FM250300 20007KT P6SM SCT080 BKN120=



000
FTUS46 KOTX 240523
TAFPUW
TAF
KPUW 240523Z 2406/2506 11003KT P6SM VCSH BKN120 BKN150
     FM240900 24008KT P6SM SCT060 BKN130
     FM242000 26012G20KT P6SM VCSH SCT080 BKN150
     FM250300 23005KT P6SM SCT100 BKN150=



000
FTUS46 KOTX 240523
TAFCOE
TAF
KCOE 240523Z 2406/2506 16010KT P6SM VCSH OVC030
     FM241000 19009KT P6SM BKN070 OVC150
     FM242000 21011G15KT P6SM VCSH BKN070 BKN120
     FM250300 18007KT P6SM SCT070 BKN120
      AMD LTD TO CLD AND VIS=



000
FTUS46 KOTX 240523
TAFGEG
TAF
KGEG 240523Z 2406/2506 17006KT P6SM VCSH BKN100 BKN130
     FM240900 20012KT P6SM SCT100 BKN150
     FM242100 22015G20KT P6SM VCSH BKN070 BKN100
     FM250300 20007KT P6SM SCT080 BKN120=



000
FTUS46 KOTX 240523
TAFLWS
TAF
KLWS 240523Z 2406/2506 14003KT P6SM VCSH SCT060 BKN090 BKN150
     FM241000 24008KT P6SM SCT080 BKN150
     FM242100 32009G14KT P6SM VCSH BKN100 BKN150
     FM250300 VRB04KT P6SM SCT100 BKN150=



000
FTUS46 KOTX 240523
TAFGEG
TAF
KGEG 240523Z 2406/2506 17006KT P6SM VCSH BKN100 BKN130
     FM240900 20012KT P6SM SCT100 BKN150
     FM242100 22015G20KT P6SM VCSH BKN070 BKN100
     FM250300 20007KT P6SM SCT080 BKN120=



000
FTUS46 KOTX 240523
TAFSFF
TAF
KSFF 240523Z 2406/2506 VRB04KT P6SM VCSH BKN100
     FM240900 21008KT P6SM SCT100 BKN150
     FM242100 22012G18KT P6SM VCSH BKN070 BKN100
     FM250300 22005KT P6SM SCT080 BKN120=



000
FTUS46 KOTX 240523
TAFPUW
TAF
KPUW 240523Z 2406/2506 11003KT P6SM VCSH BKN120 BKN150
     FM240900 24008KT P6SM SCT060 BKN130
     FM242000 26012G20KT P6SM VCSH SCT080 BKN150
     FM250300 23005KT P6SM SCT100 BKN150=



000
FTUS46 KOTX 240523
TAFMWH
TAF
KMWH 240523Z 2406/2506 18007KT P6SM SCT080 BKN120
     FM242000 22013G20KT P6SM BKN150
     FM250300 24007KT P6SM SCT150=



000
FTUS46 KOTX 240523
TAFMWH
TAF
KMWH 240523Z 2406/2506 18007KT P6SM SCT080 BKN120
     FM242000 22013G20KT P6SM BKN150
     FM250300 24007KT P6SM SCT150=



000
FTUS46 KOTX 240523
TAFMWH
TAF
KMWH 240523Z 2406/2506 18007KT P6SM SCT080 BKN120
     FM242000 22013G20KT P6SM BKN150
     FM250300 24007KT P6SM SCT150=



000
FTUS46 KOTX 240523
TAFMWH
TAF
KMWH 240523Z 2406/2506 18007KT P6SM SCT080 BKN120
     FM242000 22013G20KT P6SM BKN150
     FM250300 24007KT P6SM SCT150=



000
FTUS46 KOTX 240523
TAFCOE
TAF
KCOE 240523Z 2406/2506 16010KT P6SM VCSH OVC030
     FM241000 19009KT P6SM BKN070 OVC150
     FM242000 21011G15KT P6SM VCSH BKN070 BKN120
     FM250300 18007KT P6SM SCT070 BKN120
      AMD LTD TO CLD AND VIS=



000
FTUS46 KOTX 240523
TAFGEG
TAF
KGEG 240523Z 2406/2506 17006KT P6SM VCSH BKN100 BKN130
     FM240900 20012KT P6SM SCT100 BKN150
     FM242100 22015G20KT P6SM VCSH BKN070 BKN100
     FM250300 20007KT P6SM SCT080 BKN120=



000
FTUS46 KOTX 240523
TAFEAT
TAF
KEAT 240523Z 2406/2506 27009KT P6SM BKN080 BKN090
     FM242100 28013G20KT P6SM BKN150
     FM250300 30009KT P6SM SCT150=



000
FTUS46 KOTX 240523
TAFSFF
TAF
KSFF 240523Z 2406/2506 VRB04KT P6SM VCSH BKN100
     FM240900 21008KT P6SM SCT100 BKN150
     FM242100 22012G18KT P6SM VCSH BKN070 BKN100
     FM250300 22005KT P6SM SCT080 BKN120=



000
FTUS46 KOTX 240523
TAFPUW
TAF
KPUW 240523Z 2406/2506 11003KT P6SM VCSH BKN120 BKN150
     FM240900 24008KT P6SM SCT060 BKN130
     FM242000 26012G20KT P6SM VCSH SCT080 BKN150
     FM250300 23005KT P6SM SCT100 BKN150=



000
FTUS46 KOTX 240523
TAFSFF
TAF
KSFF 240523Z 2406/2506 VRB04KT P6SM VCSH BKN100
     FM240900 21008KT P6SM SCT100 BKN150
     FM242100 22012G18KT P6SM VCSH BKN070 BKN100
     FM250300 22005KT P6SM SCT080 BKN120=



000
FTUS46 KOTX 240523
TAFEAT
TAF
KEAT 240523Z 2406/2506 27009KT P6SM BKN080 BKN090
     FM242100 28013G20KT P6SM BKN150
     FM250300 30009KT P6SM SCT150=



000
FTUS46 KOTX 240523
TAFCOE
TAF
KCOE 240523Z 2406/2506 16010KT P6SM VCSH OVC030
     FM241000 19009KT P6SM BKN070 OVC150
     FM242000 21011G15KT P6SM VCSH BKN070 BKN120
     FM250300 18007KT P6SM SCT070 BKN120
      AMD LTD TO CLD AND VIS=



000
FTUS46 KOTX 240523
TAFPUW
TAF
KPUW 240523Z 2406/2506 11003KT P6SM VCSH BKN120 BKN150
     FM240900 24008KT P6SM SCT060 BKN130
     FM242000 26012G20KT P6SM VCSH SCT080 BKN150
     FM250300 23005KT P6SM SCT100 BKN150=



000
FTUS46 KOTX 240523
TAFEAT
TAF
KEAT 240523Z 2406/2506 27009KT P6SM BKN080 BKN090
     FM242100 28013G20KT P6SM BKN150
     FM250300 30009KT P6SM SCT150=



000
FTUS46 KOTX 240523
TAFCOE
TAF
KCOE 240523Z 2406/2506 16010KT P6SM VCSH OVC030
     FM241000 19009KT P6SM BKN070 OVC150
     FM242000 21011G15KT P6SM VCSH BKN070 BKN120
     FM250300 18007KT P6SM SCT070 BKN120
      AMD LTD TO CLD AND VIS=



000
FTUS46 KOTX 240523
TAFLWS
TAF
KLWS 240523Z 2406/2506 14003KT P6SM VCSH SCT060 BKN090 BKN150
     FM241000 24008KT P6SM SCT080 BKN150
     FM242100 32009G14KT P6SM VCSH BKN100 BKN150
     FM250300 VRB04KT P6SM SCT100 BKN150=



000
FTUS46 KOTX 240523
TAFEAT
TAF
KEAT 240523Z 2406/2506 27009KT P6SM BKN080 BKN090
     FM242100 28013G20KT P6SM BKN150
     FM250300 30009KT P6SM SCT150=



000
FTUS46 KOTX 240523
TAFSFF
TAF
KSFF 240523Z 2406/2506 VRB04KT P6SM VCSH BKN100
     FM240900 21008KT P6SM SCT100 BKN150
     FM242100 22012G18KT P6SM VCSH BKN070 BKN100
     FM250300 22005KT P6SM SCT080 BKN120=



000
FTUS46 KOTX 240523
TAFLWS
TAF
KLWS 240523Z 2406/2506 14003KT P6SM VCSH SCT060 BKN090 BKN150
     FM241000 24008KT P6SM SCT080 BKN150
     FM242100 32009G14KT P6SM VCSH BKN100 BKN150
     FM250300 VRB04KT P6SM SCT100 BKN150=



000
FTUS46 KOTX 240523
TAFLWS
TAF
KLWS 240523Z 2406/2506 14003KT P6SM VCSH SCT060 BKN090 BKN150
     FM241000 24008KT P6SM SCT080 BKN150
     FM242100 32009G14KT P6SM VCSH BKN100 BKN150
     FM250300 VRB04KT P6SM SCT100 BKN150=



000
FTUS46 KOTX 240358 AAA
TAFMWH
TAF AMD
KMWH 240358Z 2404/2424 14012KT P6SM FEW100 BKN150
     FM240600 23009KT P6SM SCT120 SCT250
     FM242000 22013G20KT P6SM BKN150=



000
FTUS46 KOTX 240357 AAA
TAFEAT
TAF AMD
KEAT 240357Z 2404/2424 32009KT P6SM BKN070 OVC090
     FM240500 30009KT P6SM SCT120 SCT250
     FM242100 28013G20KT P6SM BKN150=



000
FTUS46 KOTX 240357 AAA
TAFEAT
TAF AMD
KEAT 240357Z 2404/2424 32009KT P6SM BKN070 OVC090
     FM240500 30009KT P6SM SCT120 SCT250
     FM242100 28013G20KT P6SM BKN150=



000
FTUS46 KOTX 240357 AAA
TAFEAT
TAF AMD
KEAT 240357Z 2404/2424 32009KT P6SM BKN070 OVC090
     FM240500 30009KT P6SM SCT120 SCT250
     FM242100 28013G20KT P6SM BKN150=



000
FTUS46 KOTX 240357 AAA
TAFEAT
TAF AMD
KEAT 240357Z 2404/2424 32009KT P6SM BKN070 OVC090
     FM240500 30009KT P6SM SCT120 SCT250
     FM242100 28013G20KT P6SM BKN150=



000
FTUS46 KOTX 232327
TAFPUW
TAF
KPUW 232327Z 2400/2424 26018G26KT P6SM -SHRA SCT045 OVC060
     FM240200 21008KT P6SM VCSH SCT060 BKN080
     FM240800 25008KT P6SM VCSH BKN060 BKN100
     FM241300 24010KT P6SM SCT070 BKN120
     FM242200 26012G20KT P6SM SCT080 BKN150=



000
FTUS46 KOTX 232327
TAFGEG
TAF
KGEG 232327Z 2400/2424 20010KT P6SM VCSH SCT050 SCT070 OVC100
     FM240300 18009KT P6SM BKN120
     FM240800 20012KT P6SM VCSH BKN100 OVC150
     FM241300 22012G15KT P6SM SCT070 BKN120
     FM242200 22016G20KT P6SM VCSH BKN070 BKN100=



000
FTUS46 KOTX 232327
TAFEAT
TAF
KEAT 232327Z 2400/2424 11008KT P6SM FEW080 BKN150
     FM240200 29011G17KT P6SM SCT080 BKN150
     FM240500 30009KT P6SM SCT120 SCT250
     FM242100 28013G20KT P6SM BKN150=



000
FTUS46 KOTX 232327
TAFSFF
TAF
KSFF 232327Z 2400/2424 21010KT P6SM VCSH SCT060 OVC080
     FM240300 20007KT P6SM BKN120
     FM240800 22008KT P6SM VCSH BKN100 OVC150
     FM241300 21008KT P6SM SCT070 BKN120
     FM242200 22011G18KT P6SM VCSH BKN070 BKN100=



000
FTUS46 KOTX 232327
TAFEAT
TAF
KEAT 232327Z 2400/2424 11008KT P6SM FEW080 BKN150
     FM240200 29011G17KT P6SM SCT080 BKN150
     FM240500 30009KT P6SM SCT120 SCT250
     FM242100 28013G20KT P6SM BKN150=



000
FTUS46 KOTX 232327
TAFLWS
TAF
KLWS 232327Z 2400/2424 31013KT P6SM VCSH BKN090
     FM240300 23007KT P6SM SCT090 BKN120
     FM240700 24008KT P6SM VCSH BKN080 OVC100
     FM241400 32007KT P6SM SCT070 BKN120
     FM242200 31010KT P6SM SCT100 BKN150=



000
FTUS46 KOTX 232327
TAFMWH
TAF
KMWH 232327Z 2400/2424 18010KT P6SM BKN150
     FM240600 23009KT P6SM SCT120 SCT250
     FM242000 22013G20KT P6SM BKN150=



000
FTUS46 KOTX 232327
TAFGEG
TAF
KGEG 232327Z 2400/2424 20010KT P6SM VCSH SCT050 SCT070 OVC100
     FM240300 18009KT P6SM BKN120
     FM240800 20012KT P6SM VCSH BKN100 OVC150
     FM241300 22012G15KT P6SM SCT070 BKN120
     FM242200 22016G20KT P6SM VCSH BKN070 BKN100=



000
FTUS46 KOTX 232327
TAFCOE
TAF
KCOE 232327Z 2400/2424 26010KT P6SM VCSH SCT070 OVC080
     FM240400 19007KT P6SM BKN100
     FM240800 20010KT P6SM VCSH BKN100 OVC150
     FM241400 19006KT P6SM SCT070 BKN120
     FM242200 21009G15KT P6SM VCSH BKN070 BKN120
      AMD LTD TO CLD AND VIS=



000
FTUS46 KOTX 232327
TAFPUW
TAF
KPUW 232327Z 2400/2424 26018G26KT P6SM -SHRA SCT045 OVC060
     FM240200 21008KT P6SM VCSH SCT060 BKN080
     FM240800 25008KT P6SM VCSH BKN060 BKN100
     FM241300 24010KT P6SM SCT070 BKN120
     FM242200 26012G20KT P6SM SCT080 BKN150=



000
FTUS46 KOTX 232327
TAFPUW
TAF
KPUW 232327Z 2400/2424 26018G26KT P6SM -SHRA SCT045 OVC060
     FM240200 21008KT P6SM VCSH SCT060 BKN080
     FM240800 25008KT P6SM VCSH BKN060 BKN100
     FM241300 24010KT P6SM SCT070 BKN120
     FM242200 26012G20KT P6SM SCT080 BKN150=



000
FTUS46 KOTX 232327
TAFEAT
TAF
KEAT 232327Z 2400/2424 11008KT P6SM FEW080 BKN150
     FM240200 29011G17KT P6SM SCT080 BKN150
     FM240500 30009KT P6SM SCT120 SCT250
     FM242100 28013G20KT P6SM BKN150=



000
FTUS46 KOTX 232327
TAFCOE
TAF
KCOE 232327Z 2400/2424 26010KT P6SM VCSH SCT070 OVC080
     FM240400 19007KT P6SM BKN100
     FM240800 20010KT P6SM VCSH BKN100 OVC150
     FM241400 19006KT P6SM SCT070 BKN120
     FM242200 21009G15KT P6SM VCSH BKN070 BKN120
      AMD LTD TO CLD AND VIS=



000
FTUS46 KOTX 232327
TAFGEG
TAF
KGEG 232327Z 2400/2424 20010KT P6SM VCSH SCT050 SCT070 OVC100
     FM240300 18009KT P6SM BKN120
     FM240800 20012KT P6SM VCSH BKN100 OVC150
     FM241300 22012G15KT P6SM SCT070 BKN120
     FM242200 22016G20KT P6SM VCSH BKN070 BKN100=



000
FTUS46 KOTX 232327
TAFMWH
TAF
KMWH 232327Z 2400/2424 18010KT P6SM BKN150
     FM240600 23009KT P6SM SCT120 SCT250
     FM242000 22013G20KT P6SM BKN150=



000
FTUS46 KOTX 232327
TAFLWS
TAF
KLWS 232327Z 2400/2424 31013KT P6SM VCSH BKN090
     FM240300 23007KT P6SM SCT090 BKN120
     FM240700 24008KT P6SM VCSH BKN080 OVC100
     FM241400 32007KT P6SM SCT070 BKN120
     FM242200 31010KT P6SM SCT100 BKN150=



000
FTUS46 KOTX 232327
TAFSFF
TAF
KSFF 232327Z 2400/2424 21010KT P6SM VCSH SCT060 OVC080
     FM240300 20007KT P6SM BKN120
     FM240800 22008KT P6SM VCSH BKN100 OVC150
     FM241300 21008KT P6SM SCT070 BKN120
     FM242200 22011G18KT P6SM VCSH BKN070 BKN100=



000
FTUS46 KOTX 232327
TAFEAT
TAF
KEAT 232327Z 2400/2424 11008KT P6SM FEW080 BKN150
     FM240200 29011G17KT P6SM SCT080 BKN150
     FM240500 30009KT P6SM SCT120 SCT250
     FM242100 28013G20KT P6SM BKN150=



000
FTUS46 KOTX 232327
TAFLWS
TAF
KLWS 232327Z 2400/2424 31013KT P6SM VCSH BKN090
     FM240300 23007KT P6SM SCT090 BKN120
     FM240700 24008KT P6SM VCSH BKN080 OVC100
     FM241400 32007KT P6SM SCT070 BKN120
     FM242200 31010KT P6SM SCT100 BKN150=



000
FTUS46 KOTX 232327
TAFMWH
TAF
KMWH 232327Z 2400/2424 18010KT P6SM BKN150
     FM240600 23009KT P6SM SCT120 SCT250
     FM242000 22013G20KT P6SM BKN150=



000
FTUS46 KOTX 232327
TAFPUW
TAF
KPUW 232327Z 2400/2424 26018G26KT P6SM -SHRA SCT045 OVC060
     FM240200 21008KT P6SM VCSH SCT060 BKN080
     FM240800 25008KT P6SM VCSH BKN060 BKN100
     FM241300 24010KT P6SM SCT070 BKN120
     FM242200 26012G20KT P6SM SCT080 BKN150=



000
FTUS46 KOTX 232327
TAFSFF
TAF
KSFF 232327Z 2400/2424 21010KT P6SM VCSH SCT060 OVC080
     FM240300 20007KT P6SM BKN120
     FM240800 22008KT P6SM VCSH BKN100 OVC150
     FM241300 21008KT P6SM SCT070 BKN120
     FM242200 22011G18KT P6SM VCSH BKN070 BKN100=



000
FTUS46 KOTX 232327
TAFCOE
TAF
KCOE 232327Z 2400/2424 26010KT P6SM VCSH SCT070 OVC080
     FM240400 19007KT P6SM BKN100
     FM240800 20010KT P6SM VCSH BKN100 OVC150
     FM241400 19006KT P6SM SCT070 BKN120
     FM242200 21009G15KT P6SM VCSH BKN070 BKN120
      AMD LTD TO CLD AND VIS=



000
FTUS46 KOTX 232327
TAFGEG
TAF
KGEG 232327Z 2400/2424 20010KT P6SM VCSH SCT050 SCT070 OVC100
     FM240300 18009KT P6SM BKN120
     FM240800 20012KT P6SM VCSH BKN100 OVC150
     FM241300 22012G15KT P6SM SCT070 BKN120
     FM242200 22016G20KT P6SM VCSH BKN070 BKN100=



000
FTUS46 KOTX 232327
TAFCOE
TAF
KCOE 232327Z 2400/2424 26010KT P6SM VCSH SCT070 OVC080
     FM240400 19007KT P6SM BKN100
     FM240800 20010KT P6SM VCSH BKN100 OVC150
     FM241400 19006KT P6SM SCT070 BKN120
     FM242200 21009G15KT P6SM VCSH BKN070 BKN120
      AMD LTD TO CLD AND VIS=



000
FTUS46 KOTX 232327
TAFMWH
TAF
KMWH 232327Z 2400/2424 18010KT P6SM BKN150
     FM240600 23009KT P6SM SCT120 SCT250
     FM242000 22013G20KT P6SM BKN150=



000
FTUS46 KOTX 232327
TAFSFF
TAF
KSFF 232327Z 2400/2424 21010KT P6SM VCSH SCT060 OVC080
     FM240300 20007KT P6SM BKN120
     FM240800 22008KT P6SM VCSH BKN100 OVC150
     FM241300 21008KT P6SM SCT070 BKN120
     FM242200 22011G18KT P6SM VCSH BKN070 BKN100=



000
FTUS46 KOTX 232327
TAFLWS
TAF
KLWS 232327Z 2400/2424 31013KT P6SM VCSH BKN090
     FM240300 23007KT P6SM SCT090 BKN120
     FM240700 24008KT P6SM VCSH BKN080 OVC100
     FM241400 32007KT P6SM SCT070 BKN120
     FM242200 31010KT P6SM SCT100 BKN150=



000
FTUS46 KOTX 231724
TAFCOE
TAF
KCOE 231724Z 2318/2418 18009KT P6SM BKN080 OVC120
     FM232000 21010KT P6SM FEW060 BKN080 OVC120
     FM240100 19008KT P6SM VCSH FEW040 SCT060 OVC100
     FM241700 21009KT P6SM SCT070 BKN120
      AMD LTD TO CLD AND VIS=



000
FTUS46 KOTX 231724
TAFPUW
TAF
KPUW 231724Z 2318/2418 12006KT P6SM BKN080 OVC120
     FM232100 26010G16KT P6SM SCT060 BKN080 OVC120
     FM240000 24010KT P6SM -RA SCT050 BKN070 OVC100
     FM241400 24010KT P6SM SCT070 BKN120=



000
FTUS46 KOTX 231724
TAFGEG
TAF
KGEG 231724Z 2318/2418 20012KT P6SM BKN080 OVC120
     FM232000 20012G18KT P6SM FEW060 BKN080 OVC120
     FM240100 20010KT P6SM VCSH FEW040 SCT070 OVC120
     FM241700 22012G15KT P6SM SCT070 BKN120=



000
FTUS46 KOTX 231724
TAFSFF
TAF
KSFF 231724Z 2318/2418 21009KT P6SM BKN080 OVC120
     FM232000 21010G16KT P6SM FEW060 BKN080 OVC120
     FM240300 20007KT P6SM VCSH FEW040 SCT070 OVC120
     FM241700 22008KT P6SM SCT070 BKN120=



000
FTUS46 KOTX 231724
TAFMWH
TAF
KMWH 231724Z 2318/2418 21005KT P6SM FEW060 BKN080 OVC120
     FM232100 20012G18KT P6SM FEW060 BKN080 OVC120
     FM240200 23009KT P6SM SCT080 SCT120 SCT250=



000
FTUS46 KOTX 231724
TAFLWS
TAF
KLWS 231724Z 2318/2418 30004KT P6SM BKN080 OVC120
     FM231900 32007KT P6SM FEW060 BKN080 OVC120
     FM240000 24005KT P6SM -RA SCT060 BKN100 OVC120
     FM241400 32007KT P6SM SCT070 BKN120=



000
FTUS46 KOTX 231724
TAFLWS
TAF
KLWS 231724Z 2318/2418 30004KT P6SM BKN080 OVC120
     FM231900 32007KT P6SM FEW060 BKN080 OVC120
     FM240000 24005KT P6SM -RA SCT060 BKN100 OVC120
     FM241400 32007KT P6SM SCT070 BKN120=



000
FTUS46 KOTX 231724
TAFMWH
TAF
KMWH 231724Z 2318/2418 21005KT P6SM FEW060 BKN080 OVC120
     FM232100 20012G18KT P6SM FEW060 BKN080 OVC120
     FM240200 23009KT P6SM SCT080 SCT120 SCT250=



000
FTUS46 KOTX 231724
TAFEAT
TAF
KEAT 231724Z 2318/2418 32008KT P6SM BKN090 OVC120
     FM232000 14008KT P6SM SCT080 BKN090 OVC120
     FM240100 29011G17KT P6SM SCT080 BKN090 OVC120
     FM240300 30009KT P6SM SCT080 SCT090 SCT120=



000
FTUS46 KOTX 231724
TAFCOE
TAF
KCOE 231724Z 2318/2418 18009KT P6SM BKN080 OVC120
     FM232000 21010KT P6SM FEW060 BKN080 OVC120
     FM240100 19008KT P6SM VCSH FEW040 SCT060 OVC100
     FM241700 21009KT P6SM SCT070 BKN120
      AMD LTD TO CLD AND VIS=



000
FTUS46 KOTX 231724
TAFPUW
TAF
KPUW 231724Z 2318/2418 12006KT P6SM BKN080 OVC120
     FM232100 26010G16KT P6SM SCT060 BKN080 OVC120
     FM240000 24010KT P6SM -RA SCT050 BKN070 OVC100
     FM241400 24010KT P6SM SCT070 BKN120=



000
FTUS46 KOTX 231724
TAFSFF
TAF
KSFF 231724Z 2318/2418 21009KT P6SM BKN080 OVC120
     FM232000 21010G16KT P6SM FEW060 BKN080 OVC120
     FM240300 20007KT P6SM VCSH FEW040 SCT070 OVC120
     FM241700 22008KT P6SM SCT070 BKN120=



000
FTUS46 KOTX 231724
TAFEAT
TAF
KEAT 231724Z 2318/2418 32008KT P6SM BKN090 OVC120
     FM232000 14008KT P6SM SCT080 BKN090 OVC120
     FM240100 29011G17KT P6SM SCT080 BKN090 OVC120
     FM240300 30009KT P6SM SCT080 SCT090 SCT120=



000
FTUS46 KOTX 231724
TAFGEG
TAF
KGEG 231724Z 2318/2418 20012KT P6SM BKN080 OVC120
     FM232000 20012G18KT P6SM FEW060 BKN080 OVC120
     FM240100 20010KT P6SM VCSH FEW040 SCT070 OVC120
     FM241700 22012G15KT P6SM SCT070 BKN120=



000
FTUS46 KOTX 231120
TAFSFF
TAF
KSFF 231120Z 2312/2412 19005KT P6SM SCT200
     FM231700 21010G16KT P6SM FEW070 BKN100 OVC120
     FM240300 20007KT P6SM VCSH FEW040 SCT070 OVC120=



000
FTUS46 KOTX 231120
TAFEAT
TAF
KEAT 231120Z 2312/2412 31006KT P6SM SCT100 BKN150 OVC200
     FM232000 14008KT P6SM SCT080 BKN100 OVC150
     FM240100 29011G17KT P6SM SCT080 OVC120
     FM240300 30009KT P6SM FEW250=



000
FTUS46 KOTX 231120
TAFLWS
TAF
KLWS 231120Z 2312/2412 VRB04KT P6SM SCT200
     FM231900 32007KT P6SM SCT080 BKN100 OVC120
     FM240000 24005KT P6SM VCSH SCT070 BKN100 OVC120=



000
FTUS46 KOTX 231120
TAFCOE
TAF
KCOE 231120Z 2312/2412 16007KT P6SM SCT200
     FM232000 21010KT P6SM FEW070 BKN120 OVC150
     FM240100 19008KT P6SM VCSH FEW040 SCT060 OVC100
      AMD LTD TO CLD AND VIS=



000
FTUS46 KOTX 231120
TAFSFF
TAF
KSFF 231120Z 2312/2412 19005KT P6SM SCT200
     FM231700 21010G16KT P6SM FEW070 BKN100 OVC120
     FM240300 20007KT P6SM VCSH FEW040 SCT070 OVC120=



000
FTUS46 KOTX 231120
TAFMWH
TAF
KMWH 231120Z 2312/2412 26004KT P6SM FEW150 SCT200
     FM231400 21005KT P6SM SCT100 BKN150 OVC200
     FM232100 20012G18KT P6SM SCT080 BKN100 OVC150
     FM240200 23009KT P6SM FEW100 SCT250=



000
FTUS46 KOTX 231120
TAFEAT
TAF
KEAT 231120Z 2312/2412 31006KT P6SM SCT100 BKN150 OVC200
     FM232000 14008KT P6SM SCT080 BKN100 OVC150
     FM240100 29011G17KT P6SM SCT080 OVC120
     FM240300 30009KT P6SM FEW250=



000
FTUS46 KOTX 231120
TAFLWS
TAF
KLWS 231120Z 2312/2412 VRB04KT P6SM SCT200
     FM231900 32007KT P6SM SCT080 BKN100 OVC120
     FM240000 24005KT P6SM VCSH SCT070 BKN100 OVC120=



000
FTUS46 KOTX 231120
TAFLWS
TAF
KLWS 231120Z 2312/2412 VRB04KT P6SM SCT200
     FM231900 32007KT P6SM SCT080 BKN100 OVC120
     FM240000 24005KT P6SM VCSH SCT070 BKN100 OVC120=



000
FTUS46 KOTX 231120
TAFGEG
TAF
KGEG 231120Z 2312/2412 17008KT P6SM SCT200
     FM231700 21012G18KT P6SM FEW070 BKN100 OVC150
     FM240200 20010KT P6SM VCSH FEW040 SCT070 OVC120=



000
FTUS46 KOTX 231120
TAFEAT
TAF
KEAT 231120Z 2312/2412 31006KT P6SM SCT100 BKN150 OVC200
     FM232000 14008KT P6SM SCT080 BKN100 OVC150
     FM240100 29011G17KT P6SM SCT080 OVC120
     FM240300 30009KT P6SM FEW250=



000
FTUS46 KOTX 231120
TAFMWH
TAF
KMWH 231120Z 2312/2412 26004KT P6SM FEW150 SCT200
     FM231400 21005KT P6SM SCT100 BKN150 OVC200
     FM232100 20012G18KT P6SM SCT080 BKN100 OVC150
     FM240200 23009KT P6SM FEW100 SCT250=



000
FTUS46 KOTX 231120
TAFCOE
TAF
KCOE 231120Z 2312/2412 16007KT P6SM SCT200
     FM232000 21010KT P6SM FEW070 BKN120 OVC150
     FM240100 19008KT P6SM VCSH FEW040 SCT060 OVC100
      AMD LTD TO CLD AND VIS=



000
FTUS46 KOTX 231120
TAFGEG
TAF
KGEG 231120Z 2312/2412 17008KT P6SM SCT200
     FM231700 21012G18KT P6SM FEW070 BKN100 OVC150
     FM240200 20010KT P6SM VCSH FEW040 SCT070 OVC120=



000
FTUS46 KOTX 231120
TAFPUW
TAF
KPUW 231120Z 2312/2412 24003KT P6SM SCT200
     FM231500 25008KT P6SM SCT150 BKN200
     FM232100 26010G16KT P6SM SCT070 BKN090 OVC120
     FM240000 24010KT P6SM VCSH SCT050 BKN070 OVC100=



000
FTUS46 KOTX 231120
TAFSFF
TAF
KSFF 231120Z 2312/2412 19005KT P6SM SCT200
     FM231700 21010G16KT P6SM FEW070 BKN100 OVC120
     FM240300 20007KT P6SM VCSH FEW040 SCT070 OVC120=



000
FTUS46 KOTX 231120
TAFEAT
TAF
KEAT 231120Z 2312/2412 31006KT P6SM SCT100 BKN150 OVC200
     FM232000 14008KT P6SM SCT080 BKN100 OVC150
     FM240100 29011G17KT P6SM SCT080 OVC120
     FM240300 30009KT P6SM FEW250=



000
FTUS46 KOTX 231120
TAFCOE
TAF
KCOE 231120Z 2312/2412 16007KT P6SM SCT200
     FM232000 21010KT P6SM FEW070 BKN120 OVC150
     FM240100 19008KT P6SM VCSH FEW040 SCT060 OVC100
      AMD LTD TO CLD AND VIS=



000
FTUS46 KOTX 231120
TAFLWS
TAF
KLWS 231120Z 2312/2412 VRB04KT P6SM SCT200
     FM231900 32007KT P6SM SCT080 BKN100 OVC120
     FM240000 24005KT P6SM VCSH SCT070 BKN100 OVC120=



000
FTUS46 KOTX 231120
TAFSFF
TAF
KSFF 231120Z 2312/2412 19005KT P6SM SCT200
     FM231700 21010G16KT P6SM FEW070 BKN100 OVC120
     FM240300 20007KT P6SM VCSH FEW040 SCT070 OVC120=



000
FTUS46 KOTX 231120
TAFPUW
TAF
KPUW 231120Z 2312/2412 24003KT P6SM SCT200
     FM231500 25008KT P6SM SCT150 BKN200
     FM232100 26010G16KT P6SM SCT070 BKN090 OVC120
     FM240000 24010KT P6SM VCSH SCT050 BKN070 OVC100=



000
FTUS46 KOTX 231120
TAFMWH
TAF
KMWH 231120Z 2312/2412 26004KT P6SM FEW150 SCT200
     FM231400 21005KT P6SM SCT100 BKN150 OVC200
     FM232100 20012G18KT P6SM SCT080 BKN100 OVC150
     FM240200 23009KT P6SM FEW100 SCT250=



000
FTUS46 KOTX 231120
TAFMWH
TAF
KMWH 231120Z 2312/2412 26004KT P6SM FEW150 SCT200
     FM231400 21005KT P6SM SCT100 BKN150 OVC200
     FM232100 20012G18KT P6SM SCT080 BKN100 OVC150
     FM240200 23009KT P6SM FEW100 SCT250=



000
FTUS46 KOTX 231120
TAFGEG
TAF
KGEG 231120Z 2312/2412 17008KT P6SM SCT200
     FM231700 21012G18KT P6SM FEW070 BKN100 OVC150
     FM240200 20010KT P6SM VCSH FEW040 SCT070 OVC120=



000
FTUS46 KOTX 231120
TAFPUW
TAF
KPUW 231120Z 2312/2412 24003KT P6SM SCT200
     FM231500 25008KT P6SM SCT150 BKN200
     FM232100 26010G16KT P6SM SCT070 BKN090 OVC120
     FM240000 24010KT P6SM VCSH SCT050 BKN070 OVC100=



000
FTUS46 KOTX 231120
TAFPUW
TAF
KPUW 231120Z 2312/2412 24003KT P6SM SCT200
     FM231500 25008KT P6SM SCT150 BKN200
     FM232100 26010G16KT P6SM SCT070 BKN090 OVC120
     FM240000 24010KT P6SM VCSH SCT050 BKN070 OVC100=



000
FTUS46 KOTX 231120
TAFCOE
TAF
KCOE 231120Z 2312/2412 16007KT P6SM SCT200
     FM232000 21010KT P6SM FEW070 BKN120 OVC150
     FM240100 19008KT P6SM VCSH FEW040 SCT060 OVC100
      AMD LTD TO CLD AND VIS=



000
FTUS46 KOTX 230539
TAFGEG
TAF
KGEG 230539Z 2306/2406 19010KT P6SM FEW200
     FM230900 17008KT P6SM SCT200
     FM231700 21011KT P6SM FEW070 BKN100 OVC150
     FM240200 19008KT P6SM SCT070 BKN100 OVC120=



000
FTUS46 KOTX 230539
TAFPUW
TAF
KPUW 230539Z 2306/2406 24003KT P6SM SCT200
     FM231500 25008KT P6SM SCT150 BKN200
     FM232100 26009G15KT P6SM SCT070 BKN090 OVC120
     FM240000 24007KT P6SM VCSH SCT050 BKN070 OVC100=



000
FTUS46 KOTX 230539
TAFGEG
TAF
KGEG 230539Z 2306/2406 19010KT P6SM FEW200
     FM230900 17008KT P6SM SCT200
     FM231700 21011KT P6SM FEW070 BKN100 OVC150
     FM240200 19008KT P6SM SCT070 BKN100 OVC120=



000
FTUS46 KOTX 230539
TAFEAT
TAF
KEAT 230539Z 2306/2406 30012KT P6SM BKN200
     FM231200 31006KT P6SM SCT100 BKN150 OVC200
     FM232000 14008KT P6SM SCT080 BKN100 OVC150
     FM240100 29011G17KT P6SM SCT080 OVC120
     FM240300 29009KT P6SM FEW250=



000
FTUS46 KOTX 230539
TAFLWS
TAF
KLWS 230539Z 2306/2406 VRB04KT P6SM SCT200
     FM231500 04004KT P6SM SCT150 BKN200
     FM231900 32007KT P6SM SCT080 BKN100 OVC120
     FM240200 VRB04KT P6SM VCSH SCT070 BKN100 OVC120=



000
FTUS46 KOTX 230539
TAFPUW
TAF
KPUW 230539Z 2306/2406 24003KT P6SM SCT200
     FM231500 25008KT P6SM SCT150 BKN200
     FM232100 26009G15KT P6SM SCT070 BKN090 OVC120
     FM240000 24007KT P6SM VCSH SCT050 BKN070 OVC100=



000
FTUS46 KOTX 230539
TAFCOE
TAF
KCOE 230539Z 2306/2406 16007KT P6SM SCT200
     FM231800 21010KT P6SM FEW070 BKN120 OVC150
     FM240100 19009KT P6SM VCSH SCT060 BKN080 OVC100
      AMD LTD TO CLD AND VIS=



000
FTUS46 KOTX 230539
TAFSFF
TAF
KSFF 230539Z 2306/2406 20009KT P6SM FEW200
     FM230900 19005KT P6SM SCT200
     FM231700 21009KT P6SM FEW070 BKN100 OVC120
     FM240300 20005KT P6SM SCT070 BKN100 OVC120=



000
FTUS46 KOTX 230539
TAFMWH
TAF
KMWH 230539Z 2306/2406 26005KT P6SM FEW150 SCT200
     FM231400 21005KT P6SM SCT100 BKN150 OVC200
     FM232100 20009KT P6SM SCT080 BKN100 OVC150
     FM240400 23009KT P6SM FEW100 SCT250=



000
FTUS46 KOTX 230539
TAFCOE
TAF
KCOE 230539Z 2306/2406 16007KT P6SM SCT200
     FM231800 21010KT P6SM FEW070 BKN120 OVC150
     FM240100 19009KT P6SM VCSH SCT060 BKN080 OVC100
      AMD LTD TO CLD AND VIS=



000
FTUS46 KOTX 230539
TAFSFF
TAF
KSFF 230539Z 2306/2406 20009KT P6SM FEW200
     FM230900 19005KT P6SM SCT200
     FM231700 21009KT P6SM FEW070 BKN100 OVC120
     FM240300 20005KT P6SM SCT070 BKN100 OVC120=



000
FTUS46 KOTX 230539
TAFLWS
TAF
KLWS 230539Z 2306/2406 VRB04KT P6SM SCT200
     FM231500 04004KT P6SM SCT150 BKN200
     FM231900 32007KT P6SM SCT080 BKN100 OVC120
     FM240200 VRB04KT P6SM VCSH SCT070 BKN100 OVC120=



000
FTUS46 KOTX 230539
TAFEAT
TAF
KEAT 230539Z 2306/2406 30012KT P6SM BKN200
     FM231200 31006KT P6SM SCT100 BKN150 OVC200
     FM232000 14008KT P6SM SCT080 BKN100 OVC150
     FM240100 29011G17KT P6SM SCT080 OVC120
     FM240300 29009KT P6SM FEW250=



000
FTUS46 KOTX 230539
TAFMWH
TAF
KMWH 230539Z 2306/2406 26005KT P6SM FEW150 SCT200
     FM231400 21005KT P6SM SCT100 BKN150 OVC200
     FM232100 20009KT P6SM SCT080 BKN100 OVC150
     FM240400 23009KT P6SM FEW100 SCT250=



000
FTUS46 KOTX 230119 AAA
TAFMWH
TAF AMD
KMWH 230119Z 2301/2324 24008KT P6SM SKC
     FM230900 22005KT P6SM SCT100 BKN150 OVC200
     FM231800 20009KT P6SM SCT080 BKN120 OVC150=



000
FTUS46 KOTX 222339
TAFGEG
TAF
KGEG 222339Z 2300/2324 22015G24KT P6SM FEW070
     FM230200 22010KT P6SM FEW200
     FM230800 17008KT P6SM SCT150 OVC200
     FM231500 19010KT P6SM FEW070 BKN100 OVC150
     FM232100 21011G18KT P6SM SCT070 BKN100 OVC120=



000
FTUS46 KOTX 222339
TAFLWS
TAF
KLWS 222339Z 2300/2324 30008KT P6SM FEW250
     FM230400 17005KT P6SM SCT250
     FM231400 VRB04KT P6SM BKN150 OVC200
     FM231900 32007KT P6SM SCT080 BKN100 OVC120=



000
FTUS46 KOTX 222339
TAFCOE
TAF
KCOE 222339Z 2300/2324 22013KT P6SM FEW070
     FM230400 16006KT P6SM FEW150 SCT200
     FM231800 20008G14KT P6SM FEW080 BKN120 OVC150
      AMD LTD TO CLD AND VIS=



000
FTUS46 KOTX 222339
TAFPUW
TAF
KPUW 222339Z 2300/2324 27011KT P6SM FEW250
     FM230300 24003KT P6SM SCT200
     FM231500 26008KT P6SM BKN150 OVC200
     FM232100 27009G15KT P6SM SCT070 BKN090 OVC120=



000
FTUS46 KOTX 222339
TAFSFF
TAF
KSFF 222339Z 2300/2324 22012G20KT P6SM FEW080
     FM230100 22010KT P6SM FEW200
     FM230500 VRB04KT P6SM SCT150 BKN200
     FM231200 VRB04KT P6SM FEW080 BKN120 OVC150
     FM231700 21009KT P6SM SCT070 BKN100 OVC120=



000
FTUS46 KOTX 222339
TAFGEG
TAF
KGEG 222339Z 2300/2324 22015G24KT P6SM FEW070
     FM230200 22010KT P6SM FEW200
     FM230800 17008KT P6SM SCT150 OVC200
     FM231500 19010KT P6SM FEW070 BKN100 OVC150
     FM232100 21011G18KT P6SM SCT070 BKN100 OVC120=



000
FTUS46 KOTX 222339
TAFMWH
TAF
KMWH 222339Z 2300/2324 29012G20KT P6SM FEW250
     FM230200 29009KT P6SM SCT250
     FM230900 22005KT P6SM SCT100 BKN150 OVC200
     FM231800 20009KT P6SM SCT080 BKN120 OVC150=



000
FTUS46 KOTX 222339
TAFEAT
TAF
KEAT 222339Z 2300/2324 30015G25KT P6SM FEW250
     FM230300 30012KT P6SM BKN200
     FM231200 31009KT P6SM SCT080 BKN120 OVC150
     FM232000 14008KT P6SM SCT080 BKN100 OVC120=



000
FTUS46 KOTX 222339
TAFPUW
TAF
KPUW 222339Z 2300/2324 27011KT P6SM FEW250
     FM230300 24003KT P6SM SCT200
     FM231500 26008KT P6SM BKN150 OVC200
     FM232100 27009G15KT P6SM SCT070 BKN090 OVC120=



000
FTUS46 KOTX 222339
TAFSFF
TAF
KSFF 222339Z 2300/2324 22012G20KT P6SM FEW080
     FM230100 22010KT P6SM FEW200
     FM230500 VRB04KT P6SM SCT150 BKN200
     FM231200 VRB04KT P6SM FEW080 BKN120 OVC150
     FM231700 21009KT P6SM SCT070 BKN100 OVC120=



000
FTUS46 KOTX 222339
TAFEAT
TAF
KEAT 222339Z 2300/2324 30015G25KT P6SM FEW250
     FM230300 30012KT P6SM BKN200
     FM231200 31009KT P6SM SCT080 BKN120 OVC150
     FM232000 14008KT P6SM SCT080 BKN100 OVC120=



000
FTUS46 KOTX 222339
TAFLWS
TAF
KLWS 222339Z 2300/2324 30008KT P6SM FEW250
     FM230400 17005KT P6SM SCT250
     FM231400 VRB04KT P6SM BKN150 OVC200
     FM231900 32007KT P6SM SCT080 BKN100 OVC120=



000
FTUS46 KOTX 222339
TAFCOE
TAF
KCOE 222339Z 2300/2324 22013KT P6SM FEW070
     FM230400 16006KT P6SM FEW150 SCT200
     FM231800 20008G14KT P6SM FEW080 BKN120 OVC150
      AMD LTD TO CLD AND VIS=



000
FTUS46 KOTX 222339
TAFMWH
TAF
KMWH 222339Z 2300/2324 29012G20KT P6SM FEW250
     FM230200 29009KT P6SM SCT250
     FM230900 22005KT P6SM SCT100 BKN150 OVC200
     FM231800 20009KT P6SM SCT080 BKN120 OVC150=



000
FTUS46 KOTX 221727
TAFGEG
TAF
KGEG 221727Z 2218/2318 21015G24KT P6SM FEW080 OVC200
     FM230200 22010KT P6SM FEW150
     FM230800 18008KT P6SM SCT070 BKN100 OVC150
     FM231300 17006KT P6SM BKN250=



000
FTUS46 KOTX 221727
TAFMWH
TAF
KMWH 221727Z 2218/2318 28014G22KT P6SM FEW250
     FM230100 29010KT P6SM BKN200
     FM230700 29005KT P6SM SCT080 BKN100 OVC150
     FM231400 25004KT P6SM BKN250=



000
FTUS46 KOTX 221727
TAFEAT
TAF
KEAT 221727Z 2218/2318 30015G25KT P6SM FEW250
     FM230300 30012KT P6SM SCT150 BKN200
     FM230600 31009KT P6SM SCT080 BKN120 OVC150
     FM231400 28008KT P6SM BKN250=



000
FTUS46 KOTX 221727
TAFPUW
TAF
KPUW 221727Z 2218/2318 26014G20KT P6SM SCT150 BKN200
     FM222300 26010KT P6SM SKC
     FM230600 24003KT P6SM SCT120 SCT200
     FM231300 28003KT P6SM BKN250=



000
FTUS46 KOTX 221727
TAFCOE
TAF
KCOE 221727Z 2218/2318 22014G22KT P6SM SCT070 BKN200
     FM230200 18008KT P6SM FEW080 SCT200
     FM230600 15006KT P6SM SCT100 BKN150
     FM231200 16004KT P6SM BKN250
      AMD LTD TO CLD AND VIS=



000
FTUS46 KOTX 221727
TAFLWS
TAF
KLWS 221727Z 2218/2318 30012G18KT P6SM BKN200
     FM230000 30008KT P6SM SKC
     FM230400 17005KT P6SM FEW200
     FM230900 17003KT P6SM SCT100 BKN150
     FM231400 11002KT P6SM SKC=



000
FTUS46 KOTX 221727
TAFSFF
TAF
KSFF 221727Z 2218/2318 22014G22KT P6SM FEW080 BKN200
     FM230100 22010G15KT P6SM FEW250
     FM230500 VRB04KT P6SM SCT080 BKN100 OVC150
     FM231200 VRB04KT P6SM BKN250=



000
FTUS46 KOTX 221727
TAFSFF
TAF
KSFF 221727Z 2218/2318 22014G22KT P6SM FEW080 BKN200
     FM230100 22010G15KT P6SM FEW250
     FM230500 VRB04KT P6SM SCT080 BKN100 OVC150
     FM231200 VRB04KT P6SM BKN250=



000
FTUS46 KOTX 221727
TAFLWS
TAF
KLWS 221727Z 2218/2318 30012G18KT P6SM BKN200
     FM230000 30008KT P6SM SKC
     FM230400 17005KT P6SM FEW200
     FM230900 17003KT P6SM SCT100 BKN150
     FM231400 11002KT P6SM SKC=



000
FTUS46 KOTX 221727
TAFEAT
TAF
KEAT 221727Z 2218/2318 30015G25KT P6SM FEW250
     FM230300 30012KT P6SM SCT150 BKN200
     FM230600 31009KT P6SM SCT080 BKN120 OVC150
     FM231400 28008KT P6SM BKN250=



000
FTUS46 KOTX 221727
TAFCOE
TAF
KCOE 221727Z 2218/2318 22014G22KT P6SM SCT070 BKN200
     FM230200 18008KT P6SM FEW080 SCT200
     FM230600 15006KT P6SM SCT100 BKN150
     FM231200 16004KT P6SM BKN250
      AMD LTD TO CLD AND VIS=



000
FTUS46 KOTX 221727
TAFGEG
TAF
KGEG 221727Z 2218/2318 21015G24KT P6SM FEW080 OVC200
     FM230200 22010KT P6SM FEW150
     FM230800 18008KT P6SM SCT070 BKN100 OVC150
     FM231300 17006KT P6SM BKN250=



000
FTUS46 KOTX 221727
TAFPUW
TAF
KPUW 221727Z 2218/2318 26014G20KT P6SM SCT150 BKN200
     FM222300 26010KT P6SM SKC
     FM230600 24003KT P6SM SCT120 SCT200
     FM231300 28003KT P6SM BKN250=



000
FTUS46 KOTX 221727
TAFMWH
TAF
KMWH 221727Z 2218/2318 28014G22KT P6SM FEW250
     FM230100 29010KT P6SM BKN200
     FM230700 29005KT P6SM SCT080 BKN100 OVC150
     FM231400 25004KT P6SM BKN250=



000
FTUS46 KOTX 221727
TAFGEG
TAF
KGEG 221727Z 2218/2318 21015G24KT P6SM FEW080 OVC200
     FM230200 22010KT P6SM FEW150
     FM230800 18008KT P6SM SCT070 BKN100 OVC150
     FM231300 17006KT P6SM BKN250=



000
FTUS46 KOTX 221727
TAFLWS
TAF
KLWS 221727Z 2218/2318 30012G18KT P6SM BKN200
     FM230000 30008KT P6SM SKC
     FM230400 17005KT P6SM FEW200
     FM230900 17003KT P6SM SCT100 BKN150
     FM231400 11002KT P6SM SKC=



000
FTUS46 KOTX 221727
TAFMWH
TAF
KMWH 221727Z 2218/2318 28014G22KT P6SM FEW250
     FM230100 29010KT P6SM BKN200
     FM230700 29005KT P6SM SCT080 BKN100 OVC150
     FM231400 25004KT P6SM BKN250=



000
FTUS46 KOTX 221727
TAFEAT
TAF
KEAT 221727Z 2218/2318 30015G25KT P6SM FEW250
     FM230300 30012KT P6SM SCT150 BKN200
     FM230600 31009KT P6SM SCT080 BKN120 OVC150
     FM231400 28008KT P6SM BKN250=



000
FTUS46 KOTX 221727
TAFCOE
TAF
KCOE 221727Z 2218/2318 22014G22KT P6SM SCT070 BKN200
     FM230200 18008KT P6SM FEW080 SCT200
     FM230600 15006KT P6SM SCT100 BKN150
     FM231200 16004KT P6SM BKN250
      AMD LTD TO CLD AND VIS=



000
FTUS46 KOTX 221727
TAFSFF
TAF
KSFF 221727Z 2218/2318 22014G22KT P6SM FEW080 BKN200
     FM230100 22010G15KT P6SM FEW250
     FM230500 VRB04KT P6SM SCT080 BKN100 OVC150
     FM231200 VRB04KT P6SM BKN250=



000
FTUS46 KOTX 221727
TAFPUW
TAF
KPUW 221727Z 2218/2318 26014G20KT P6SM SCT150 BKN200
     FM222300 26010KT P6SM SKC
     FM230600 24003KT P6SM SCT120 SCT200
     FM231300 28003KT P6SM BKN250=



000
FTUS46 KOTX 221120
TAFSFF
TAF
KSFF 221120Z 2212/2312 21011G17KT P6SM BKN080 OVC200
     FM221600 22014G22KT P6SM FEW080 BKN200
     FM230100 22010KT P6SM FEW250
     FM230500 VRB04KT P6SM SCT080 BKN100 OVC150=



000
FTUS46 KOTX 221120
TAFGEG
TAF
KGEG 221120Z 2212/2312 20020G28KT P6SM BKN080 OVC200
     FM222000 22017G25KT P6SM SCT070 BKN200
     FM230200 22010KT P6SM FEW150
     FM230800 18008KT P6SM SCT070 BKN100 OVC150=



000
FTUS46 KOTX 221120
TAFLWS
TAF
KLWS 221120Z 2212/2312 30010G16KT P6SM VCSH SCT060 BKN100 OVC120
     FM221800 30012G18KT P6SM BKN200
     FM230000 30008KT P6SM SKC
     FM230400 17005KT P6SM FEW200
     FM230900 17003KT P6SM SCT100 BKN150=



000
FTUS46 KOTX 221120
TAFEAT
TAF
KEAT 221120Z 2212/2312 30022G30KT P6SM BKN200
     FM221700 30017G25KT P6SM FEW250
     FM230300 30012KT P6SM SCT150 BKN200
     FM230600 31009KT P6SM SCT080 BKN120 OVC150=



000
FTUS46 KOTX 221120
TAFPUW
TAF
KPUW 221120Z 2212/2312 25014G22KT P6SM SCT080 BKN120
     FM221300 26016G24KT P6SM VCSH SCT050 BKN080 OVC120
     FM221800 26014G20KT P6SM SCT150 BKN200
     FM222300 26010KT P6SM SKC
     FM230600 24003KT P6SM SCT120 SCT200=



000
FTUS46 KOTX 221120
TAFCOE
TAF
KCOE 221120Z 2212/2312 19008KT P6SM BKN080 OVC100
     FM221500 20012KT P6SM SCT070 BKN090 OVC200
     FM221700 22014G22KT P6SM SCT070 BKN200
     FM230200 18008KT P6SM FEW080 SCT200
     FM230600 15006KT P6SM SCT100 BKN150
      AMD LTD TO CLD AND VIS=



000
FTUS46 KOTX 221120
TAFMWH
TAF
KMWH 221120Z 2212/2312 28010KT P6SM FEW120 BKN200
     FM221600 28014G22KT P6SM FEW250
     FM230100 29010KT P6SM BKN200
     FM230700 29005KT P6SM SCT080 BKN100 OVC150=



000
FTUS46 KOTX 221120
TAFPUW
TAF
KPUW 221120Z 2212/2312 25014G22KT P6SM SCT080 BKN120
     FM221300 26016G24KT P6SM VCSH SCT050 BKN080 OVC120
     FM221800 26014G20KT P6SM SCT150 BKN200
     FM222300 26010KT P6SM SKC
     FM230600 24003KT P6SM SCT120 SCT200=



000
FTUS46 KOTX 221120
TAFGEG
TAF
KGEG 221120Z 2212/2312 20020G28KT P6SM BKN080 OVC200
     FM222000 22017G25KT P6SM SCT070 BKN200
     FM230200 22010KT P6SM FEW150
     FM230800 18008KT P6SM SCT070 BKN100 OVC150=



000
FTUS46 KOTX 221120
TAFSFF
TAF
KSFF 221120Z 2212/2312 21011G17KT P6SM BKN080 OVC200
     FM221600 22014G22KT P6SM FEW080 BKN200
     FM230100 22010KT P6SM FEW250
     FM230500 VRB04KT P6SM SCT080 BKN100 OVC150=



000
FTUS46 KOTX 221120
TAFSFF
TAF
KSFF 221120Z 2212/2312 21011G17KT P6SM BKN080 OVC200
     FM221600 22014G22KT P6SM FEW080 BKN200
     FM230100 22010KT P6SM FEW250
     FM230500 VRB04KT P6SM SCT080 BKN100 OVC150=



000
FTUS46 KOTX 221120
TAFGEG
TAF
KGEG 221120Z 2212/2312 20020G28KT P6SM BKN080 OVC200
     FM222000 22017G25KT P6SM SCT070 BKN200
     FM230200 22010KT P6SM FEW150
     FM230800 18008KT P6SM SCT070 BKN100 OVC150=



000
FTUS46 KOTX 221120
TAFLWS
TAF
KLWS 221120Z 2212/2312 30010G16KT P6SM VCSH SCT060 BKN100 OVC120
     FM221800 30012G18KT P6SM BKN200
     FM230000 30008KT P6SM SKC
     FM230400 17005KT P6SM FEW200
     FM230900 17003KT P6SM SCT100 BKN150=



000
FTUS46 KOTX 221120
TAFGEG
TAF
KGEG 221120Z 2212/2312 20020G28KT P6SM BKN080 OVC200
     FM222000 22017G25KT P6SM SCT070 BKN200
     FM230200 22010KT P6SM FEW150
     FM230800 18008KT P6SM SCT070 BKN100 OVC150=



000
FTUS46 KOTX 221120
TAFPUW
TAF
KPUW 221120Z 2212/2312 25014G22KT P6SM SCT080 BKN120
     FM221300 26016G24KT P6SM VCSH SCT050 BKN080 OVC120
     FM221800 26014G20KT P6SM SCT150 BKN200
     FM222300 26010KT P6SM SKC
     FM230600 24003KT P6SM SCT120 SCT200=



000
FTUS46 KOTX 221120
TAFMWH
TAF
KMWH 221120Z 2212/2312 28010KT P6SM FEW120 BKN200
     FM221600 28014G22KT P6SM FEW250
     FM230100 29010KT P6SM BKN200
     FM230700 29005KT P6SM SCT080 BKN100 OVC150=



000
FTUS46 KOTX 221120
TAFMWH
TAF
KMWH 221120Z 2212/2312 28010KT P6SM FEW120 BKN200
     FM221600 28014G22KT P6SM FEW250
     FM230100 29010KT P6SM BKN200
     FM230700 29005KT P6SM SCT080 BKN100 OVC150=



000
FTUS46 KOTX 221120
TAFLWS
TAF
KLWS 221120Z 2212/2312 30010G16KT P6SM VCSH SCT060 BKN100 OVC120
     FM221800 30012G18KT P6SM BKN200
     FM230000 30008KT P6SM SKC
     FM230400 17005KT P6SM FEW200
     FM230900 17003KT P6SM SCT100 BKN150=



000
FTUS46 KOTX 221120
TAFCOE
TAF
KCOE 221120Z 2212/2312 19008KT P6SM BKN080 OVC100
     FM221500 20012KT P6SM SCT070 BKN090 OVC200
     FM221700 22014G22KT P6SM SCT070 BKN200
     FM230200 18008KT P6SM FEW080 SCT200
     FM230600 15006KT P6SM SCT100 BKN150
      AMD LTD TO CLD AND VIS=



000
FTUS46 KOTX 221120
TAFMWH
TAF
KMWH 221120Z 2212/2312 28010KT P6SM FEW120 BKN200
     FM221600 28014G22KT P6SM FEW250
     FM230100 29010KT P6SM BKN200
     FM230700 29005KT P6SM SCT080 BKN100 OVC150=



000
FTUS46 KOTX 221120
TAFPUW
TAF
KPUW 221120Z 2212/2312 25014G22KT P6SM SCT080 BKN120
     FM221300 26016G24KT P6SM VCSH SCT050 BKN080 OVC120
     FM221800 26014G20KT P6SM SCT150 BKN200
     FM222300 26010KT P6SM SKC
     FM230600 24003KT P6SM SCT120 SCT200=



000
FTUS46 KOTX 221120
TAFSFF
TAF
KSFF 221120Z 2212/2312 21011G17KT P6SM BKN080 OVC200
     FM221600 22014G22KT P6SM FEW080 BKN200
     FM230100 22010KT P6SM FEW250
     FM230500 VRB04KT P6SM SCT080 BKN100 OVC150=



000
FTUS46 KOTX 221120
TAFCOE
TAF
KCOE 221120Z 2212/2312 19008KT P6SM BKN080 OVC100
     FM221500 20012KT P6SM SCT070 BKN090 OVC200
     FM221700 22014G22KT P6SM SCT070 BKN200
     FM230200 18008KT P6SM FEW080 SCT200
     FM230600 15006KT P6SM SCT100 BKN150
      AMD LTD TO CLD AND VIS=



000
FTUS46 KOTX 221120
TAFEAT
TAF
KEAT 221120Z 2212/2312 30022G30KT P6SM BKN200
     FM221700 30017G25KT P6SM FEW250
     FM230300 30012KT P6SM SCT150 BKN200
     FM230600 31009KT P6SM SCT080 BKN120 OVC150=



000
FTUS46 KOTX 221120
TAFCOE
TAF
KCOE 221120Z 2212/2312 19008KT P6SM BKN080 OVC100
     FM221500 20012KT P6SM SCT070 BKN090 OVC200
     FM221700 22014G22KT P6SM SCT070 BKN200
     FM230200 18008KT P6SM FEW080 SCT200
     FM230600 15006KT P6SM SCT100 BKN150
      AMD LTD TO CLD AND VIS=



000
FTUS46 KOTX 221120
TAFEAT
TAF
KEAT 221120Z 2212/2312 30022G30KT P6SM BKN200
     FM221700 30017G25KT P6SM FEW250
     FM230300 30012KT P6SM SCT150 BKN200
     FM230600 31009KT P6SM SCT080 BKN120 OVC150=



000
FTUS46 KOTX 221120
TAFLWS
TAF
KLWS 221120Z 2212/2312 30010G16KT P6SM VCSH SCT060 BKN100 OVC120
     FM221800 30012G18KT P6SM BKN200
     FM230000 30008KT P6SM SKC
     FM230400 17005KT P6SM FEW200
     FM230900 17003KT P6SM SCT100 BKN150=



000
FTUS46 KOTX 221120
TAFEAT
TAF
KEAT 221120Z 2212/2312 30022G30KT P6SM BKN200
     FM221700 30017G25KT P6SM FEW250
     FM230300 30012KT P6SM SCT150 BKN200
     FM230600 31009KT P6SM SCT080 BKN120 OVC150=



000
FTUS46 KOTX 220933 AAA
TAFGEG
TAF AMD
KGEG 220933Z 2210/2306 20020G28KT P6SM SCT150 BKN200
     FM221200 20020G28KT P6SM VCSH BKN080 OVC200
     FM221500 22017G25KT P6SM FEW070 BKN200
     FM230200 22010KT P6SM FEW250=



000
FTUS46 KOTX 220933 AAA
TAFGEG
TAF AMD
KGEG 220933Z 2210/2306 20020G28KT P6SM SCT150 BKN200
     FM221200 20020G28KT P6SM VCSH BKN080 OVC200
     FM221500 22017G25KT P6SM FEW070 BKN200
     FM230200 22010KT P6SM FEW250=



000
FTUS46 KOTX 220931 AAA
TAFEAT
TAF AMD
KEAT 220931Z 2210/2306 30022G30KT P6SM BKN250
     FM221700 30017G25KT P6SM FEW250
     FM230300 30012KT P6SM BKN200=



000
FTUS46 KOTX 220931 AAA
TAFEAT
TAF AMD
KEAT 220931Z 2210/2306 30022G30KT P6SM BKN250
     FM221700 30017G25KT P6SM FEW250
     FM230300 30012KT P6SM BKN200=



000
FTUS46 KOTX 220931 AAA
TAFEAT
TAF AMD
KEAT 220931Z 2210/2306 30022G30KT P6SM BKN250
     FM221700 30017G25KT P6SM FEW250
     FM230300 30012KT P6SM BKN200=



    US Dept of Commerce
    National Oceanic and Atmospheric Administration
    National Weather Service
    1325 East West Highway
    Silver Spring, MD 20910
    Page Author: NWS Internet Services Team
Disclaimer
Information Quality
Credits
Glossary
Privacy Policy
Freedom of Information Act (FOIA)
About Us
Career Opportunities